Time;durP1;ratioP1;P1;durP2;ratioP2;P2;SDS_P1;SDS_P2;PMS_P1;PMS_P2;Temp;Humidity;BMP_temperature;BMP_pressure;BME280_temperature;BME280_humidity;BME280_pressure;Samples;Min_cycle;Max_cycle;Signal;HPM_P1;HPM_P2
2021/11/13 00:00:39;;;;;;;54.72;26.52;;;;;;;8.93;98.60;100982.72;5059085;28;20106;-87
2021/11/13 00:03:05;;;;;;;49.35;25.27;;;;;;;8.94;98.47;100969.63;5071634;28;20044;-87
2021/11/13 00:05:30;;;;;;;57.20;25.50;;;;;;;8.94;98.52;100977.47;5066257;28;20082;-87
2021/11/13 00:07:56;;;;;;;55.13;26.70;;;;;;;8.96;98.64;100980.88;5058181;28;20107;-87
2021/11/13 00:10:26;;;;;;;66.03;26.35;;;;;;;8.97;98.90;100979.97;5042044;28;20033;-87
2021/11/13 00:12:53;;;;;;;60.28;27.38;;;;;;;8.99;98.92;100970.34;5060008;28;20095;-87
2021/11/13 00:15:21;;;;;;;51.80;25.38;;;;;;;8.99;98.97;100975.56;5076010;28;20091;-86
2021/11/13 00:17:47;;;;;;;51.47;24.80;;;;;;;9.01;99.05;100965.91;5059320;28;20077;-87
2021/11/13 00:20:13;;;;;;;49.53;23.73;;;;;;;9.04;98.85;100972.81;5052257;28;20064;-87
2021/11/13 00:22:38;;;;;;;56.28;25.88;;;;;;;9.05;98.94;100968.44;5076237;28;20358;-87
2021/11/13 00:25:04;;;;;;;46.60;25.98;;;;;;;9.07;99.07;100962.25;5068587;28;20032;-86
2021/11/13 00:27:30;;;;;;;52.63;24.63;;;;;;;9.09;99.19;100964.81;5043976;28;20194;-87
2021/11/13 00:29:55;;;;;;;51.97;24.73;;;;;;;9.09;99.12;100965.66;5068578;28;20071;-87
2021/11/13 00:32:21;;;;;;;50.80;25.50;;;;;;;9.10;99.30;100967.38;5065959;28;20048;-87
2021/11/13 00:34:46;;;;;;;52.95;26.25;;;;;;;9.12;99.29;100962.09;5052698;28;20025;-87
2021/11/13 00:37:11;;;;;;;58.42;25.67;;;;;;;9.11;99.17;100949.94;5054565;28;20121;-86
2021/11/13 00:39:37;;;;;;;54.38;25.70;;;;;;;9.13;99.30;100959.44;5055206;28;20021;-87
2021/11/13 00:42:03;;;;;;;52.65;26.15;;;;;;;9.13;99.39;100946.38;5039976;28;20035;-87
2021/11/13 00:44:28;;;;;;;59.88;27.00;;;;;;;9.14;99.48;100942.00;5076778;28;20356;-86
2021/11/13 00:46:53;;;;;;;56.60;25.23;;;;;;;9.15;99.81;100931.50;5037301;28;20025;-86
2021/11/13 00:49:19;;;;;;;52.70;25.65;;;;;;;9.17;99.90;100934.06;5069559;28;20044;-86
2021/11/13 00:51:45;;;;;;;62.92;26.88;;;;;;;9.18;99.79;100927.94;5073769;28;20032;-87
2021/11/13 00:54:11;;;;;;;47.10;25.42;;;;;;;9.18;99.90;100926.16;5057117;28;20261;-87
2021/11/13 00:56:37;;;;;;;50.10;24.60;;;;;;;9.20;100.00;100926.13;5023562;28;20021;-86
2021/11/13 00:59:02;;;;;;;46.90;25.58;;;;;;;9.21;99.90;100933.91;5059366;28;20254;-86
2021/11/13 01:01:27;;;;;;;54.47;25.92;;;;;;;9.20;100.00;100932.22;5076178;28;20046;-86
2021/11/13 01:03:53;;;;;;;46.22;25.23;;;;;;;9.21;100.00;100927.84;5072302;28;20154;-87
2021/11/13 01:06:18;;;;;;;53.33;25.33;;;;;;;9.23;100.00;100928.63;5057743;28;20044;-86
2021/11/13 01:08:47;;;;;;;47.65;25.35;;;;;;;9.25;100.00;100923.34;5067171;28;20063;-87
2021/11/13 01:11:13;;;;;;;55.50;27.00;;;;;;;9.25;100.00;100918.97;5040618;28;20299;-87
2021/11/13 01:13:38;;;;;;;54.60;27.40;;;;;;;9.27;100.00;100917.16;5040921;28;20035;-86
2021/11/13 01:16:04;;;;;;;54.28;27.92;;;;;;;9.29;100.00;100914.50;5066903;28;20039;-87
2021/11/13 01:18:29;;;;;;;49.22;25.45;;;;;;;9.29;100.00;100904.88;5049243;28;20062;-86
2021/11/13 01:20:54;;;;;;;57.47;27.48;;;;;;;9.33;100.00;100909.13;5065633;28;20336;-86
2021/11/13 01:23:20;;;;;;;53.05;26.58;;;;;;;9.35;100.00;100903.81;5043270;28;20039;-86
2021/11/13 01:25:46;;;;;;;53.22;26.60;;;;;;;9.37;100.00;100912.50;5056311;28;20029;-86
2021/11/13 01:28:11;;;;;;;54.35;26.77;;;;;;;9.38;100.00;100906.34;5069602;28;20374;-87
2021/11/13 01:30:36;;;;;;;51.85;25.73;;;;;;;9.39;100.00;100903.69;5024043;28;20382;-86
2021/11/13 01:33:02;;;;;;;45.20;24.25;;;;;;;9.43;100.00;100900.97;5050468;28;20331;-86
2021/11/13 01:35:27;;;;;;;46.75;25.20;;;;;;;9.44;100.00;100903.53;5055851;28;20094;-86
2021/11/13 01:37:53;;;;;;;46.45;25.52;;;;;;;9.46;100.00;100908.69;5055719;28;20046;-86
2021/11/13 01:40:20;;;;;;;50.22;25.08;;;;;;;9.46;100.00;100904.31;5077076;28;20221;-86
2021/11/13 01:42:46;;;;;;;49.05;23.42;;;;;;;9.50;100.00;100902.47;5059700;28;20036;-86
2021/11/13 01:45:12;;;;;;;49.08;23.00;;;;;;;9.49;100.00;100900.75;5040630;28;20044;-87
2021/11/13 01:47:38;;;;;;;45.53;21.13;;;;;;;9.51;100.00;100904.16;5055776;28;20049;-86
2021/11/13 01:50:34;;;;;;;47.80;20.25;;;;;;;9.54;100.00;100904.06;5034996;28;20036;-86
2021/11/13 01:52:59;;;;;;;43.30;17.40;;;;;;;9.56;100.00;100908.31;5061057;28;20049;-86
2021/11/13 01:55:27;;;;;;;44.28;17.77;;;;;;;9.58;100.00;100897.81;5039107;28;20079;-86
2021/11/13 01:57:53;;;;;;;47.47;17.13;;;;;;;9.57;100.00;100904.78;5056455;28;20382;-86
2021/11/13 02:00:24;;;;;;;46.03;16.83;;;;;;;9.57;100.00;100899.56;5056478;28;20036;-86
2021/11/13 02:02:49;;;;;;;40.25;16.30;;;;;;;9.60;100.00;100889.00;5040153;28;20025;-86
2021/11/13 02:05:14;;;;;;;37.83;15.20;;;;;;;9.63;100.00;100892.41;5073065;28;20081;-86
2021/11/13 02:07:40;;;;;;;48.35;16.15;;;;;;;9.62;100.00;100894.16;5076770;28;20062;-87
2021/11/13 02:10:06;;;;;;;41.38;13.93;;;;;;;9.66;100.00;100894.91;5075637;28;20060;-87
2021/11/13 02:12:31;;;;;;;41.72;13.98;;;;;;;9.68;100.00;100895.69;5077508;28;20028;-87
2021/11/13 02:14:57;;;;;;;43.72;14.10;;;;;;;9.68;100.00;100893.97;5042692;28;20028;-87
2021/11/13 02:17:22;;;;;;;42.42;14.90;;;;;;;9.66;100.00;100889.66;5041981;28;20024;-87
2021/11/13 02:19:49;;;;;;;58.15;15.60;;;;;;;9.67;100.00;100888.78;5059222;28;20232;-87
2021/11/13 02:22:14;;;;;;;42.33;16.27;;;;;;;9.67;100.00;100891.41;5059077;28;20036;-87
2021/11/13 02:24:44;;;;;;;46.55;16.83;;;;;;;9.70;100.00;100893.91;5075477;28;20275;-87
2021/11/13 02:27:09;;;;;;;45.08;17.42;;;;;;;9.69;100.00;100887.81;5059156;28;20201;-87
2021/11/13 02:29:35;;;;;;;62.92;21.17;;;;;;;9.68;100.00;100880.88;5041900;28;20038;-87
2021/11/13 02:32:01;;;;;;;54.80;21.75;;;;;;;9.70;100.00;100881.69;5042342;28;20263;-87
2021/11/13 02:34:27;;;;;;;63.45;23.55;;;;;;;9.71;100.00;100885.13;5075558;28;20028;-86
2021/11/13 02:36:52;;;;;;;66.72;24.38;;;;;;;9.72;100.00;100879.00;5075535;28;20367;-87
2021/11/13 02:39:18;;;;;;;62.80;24.23;;;;;;;9.72;100.00;100877.25;5075347;28;20220;-87
2021/11/13 02:41:44;;;;;;;65.18;22.58;;;;;;;9.73;100.00;100880.69;5055602;28;20028;-87
2021/11/13 02:44:11;;;;;;;65.25;22.48;;;;;;;9.73;100.00;100881.56;5056773;28;20087;-87
2021/11/13 02:46:37;;;;;;;58.80;21.83;;;;;;;9.74;100.00;100885.03;5039024;28;20237;-87
2021/11/13 02:49:03;;;;;;;70.75;21.67;;;;;;;9.76;100.00;100876.22;5055460;28;20550;-87
2021/11/13 02:51:28;;;;;;;46.97;19.63;;;;;;;9.78;100.00;100881.38;5038490;28;20123;-87
2021/11/13 02:53:53;;;;;;;49.67;20.77;;;;;;;9.78;100.00;100879.63;5041795;28;20409;-87
2021/11/13 02:56:19;;;;;;;59.33;19.40;;;;;;;9.77;100.00;100882.31;5058514;28;20052;-86
2021/11/13 02:58:45;;;;;;;67.15;19.27;;;;;;;9.77;100.00;100885.78;5026126;28;20367;-87
2021/11/13 03:01:21;;;;;;;48.25;19.90;;;;;;;9.79;100.00;100883.09;5042239;28;20336;-87
2021/11/13 03:03:50;;;;;;;58.58;18.85;;;;;;;9.78;100.00;100884.84;5059083;28;20312;-87
2021/11/13 03:06:16;;;;;;;50.10;18.40;;;;;;;9.77;100.00;100880.53;5058992;28;20029;-87
2021/11/13 03:08:41;;;;;;;52.38;20.17;;;;;;;9.78;100.00;100876.16;5025335;28;20032;-87
2021/11/13 03:11:08;;;;;;;46.55;17.48;;;;;;;9.77;100.00;100877.94;5025460;28;20028;-87
2021/11/13 03:13:34;;;;;;;59.97;18.42;;;;;;;9.76;100.00;100883.22;5059836;28;20230;-87
2021/11/13 03:16:01;;;;;;;52.72;17.92;;;;;;;9.76;100.00;100877.97;5042130;28;20060;-87
2021/11/13 03:18:26;;;;;;;67.63;18.92;;;;;;;9.72;100.00;100877.25;5075533;28;20096;-87
2021/11/13 03:20:52;;;;;;;58.72;17.92;;;;;;;9.74;100.00;100878.03;5041854;28;20210;-87
2021/11/13 03:23:17;;;;;;;47.33;17.55;;;;;;;9.77;100.00;100877.94;5041762;28;20045;-87
2021/11/13 03:25:48;;;;;;;60.47;16.10;;;;;;;9.78;100.00;100874.38;5041673;28;20320;-87
2021/11/13 03:28:15;;;;;;;47.05;16.13;;;;;;;9.78;100.00;100879.63;5058741;28;20164;-87
2021/11/13 03:30:40;;;;;;;39.63;14.93;;;;;;;9.78;100.00;100877.00;5058423;28;20312;-87
2021/11/13 03:33:06;;;;;;;36.30;14.45;;;;;;;9.80;100.00;100875.22;5025154;28;20124;-86
2021/11/13 03:35:32;;;;;;;49.85;14.27;;;;;;;9.82;100.00;100869.06;5057726;28;20136;-87
2021/11/13 03:38:04;;;;;;;51.60;13.85;;;;;;;9.82;100.00;100876.91;5059418;28;20037;-87
2021/11/13 03:40:30;;;;;;;50.45;13.57;;;;;;;9.83;100.00;100886.47;5061391;28;20059;-87
2021/11/13 03:42:56;;;;;;;58.42;13.15;;;;;;;9.84;100.00;100888.16;5074955;28;20057;-87
2021/11/13 03:45:21;;;;;;;36.17;11.20;;;;;;;9.86;100.00;100899.41;5040615;28;20093;-86
2021/11/13 03:47:47;;;;;;;62.58;11.88;;;;;;;9.86;100.00;100902.03;5041990;28;20267;-86
2021/11/13 03:50:12;;;;;;;49.15;11.45;;;;;;;9.86;100.00;100899.41;5041394;28;20029;-86
2021/11/13 03:52:37;;;;;;;36.40;10.93;;;;;;;9.87;100.00;100901.13;5057863;28;20035;-87
2021/11/13 03:55:03;;;;;;;39.88;10.07;;;;;;;9.85;100.00;100902.97;5058094;28;20053;-87
2021/11/13 03:57:29;;;;;;;35.20;9.55;;;;;;;9.86;100.00;100907.25;5041142;28;20087;-86
2021/11/13 03:59:55;;;;;;;42.17;11.07;;;;;;;9.86;100.00;100897.66;5036041;28;20051;-84
2021/11/13 04:02:20;;;;;;;42.75;9.55;;;;;;;9.86;100.00;100899.41;5057226;28;20045;-84
2021/11/13 04:04:46;;;;;;;28.63;8.02;;;;;;;9.84;100.00;100911.69;5056825;28;20059;-84
2021/11/13 04:07:12;;;;;;;26.92;7.32;;;;;;;9.82;100.00;100901.28;5058843;28;20035;-84
2021/11/13 04:09:38;;;;;;;22.63;6.55;;;;;;;9.80;100.00;100906.59;5057454;28;20032;-84
2021/11/13 04:12:05;;;;;;;20.85;5.93;;;;;;;9.80;100.00;100908.34;5057062;28;20040;-84
2021/11/13 04:14:34;;;;;;;21.85;4.43;;;;;;;9.80;100.00;100910.94;5058593;28;20437;-84
2021/11/13 04:16:59;;;;;;;10.98;3.63;;;;;;;9.78;100.00;100903.16;5041442;28;20240;-84
2021/11/13 04:19:25;;;;;;;20.23;3.35;;;;;;;9.76;100.00;100904.97;5040765;28;20036;-84
2021/11/13 04:21:50;;;;;;;11.82;3.22;;;;;;;9.76;100.00;100898.91;5041320;28;20369;-84
2021/11/13 04:24:16;;;;;;;11.55;3.03;;;;;;;9.75;100.00;100905.03;5023888;28;20033;-84
2021/11/13 04:26:41;;;;;;;12.27;3.40;;;;;;;9.72;100.00;100908.63;5040563;28;20328;-84
2021/11/13 04:29:06;;;;;;;16.92;3.95;;;;;;;9.71;100.00;100900.81;5040254;28;20020;-84
2021/11/13 04:31:32;;;;;;;15.75;4.60;;;;;;;9.71;100.00;100906.06;5058504;28;20029;-84
2021/11/13 04:34:01;;;;;;;23.15;4.60;;;;;;;9.71;100.00;100914.75;5057201;28;20068;-84
2021/11/13 04:36:31;;;;;;;24.98;4.10;;;;;;;9.70;100.00;100926.13;5024496;28;20029;-84
2021/11/13 04:38:57;;;;;;;19.00;4.78;;;;;;;9.69;100.00;100921.78;5057385;28;20072;-84
2021/11/13 04:41:22;;;;;;;12.63;3.95;;;;;;;9.70;100.00;100920.91;5066428;28;20055;-84
2021/11/13 04:43:47;;;;;;;21.40;4.07;;;;;;;9.69;100.00;100928.78;5023883;28;20080;-84
2021/11/13 04:46:13;;;;;;;17.13;3.33;;;;;;;9.68;100.00;100930.56;5056745;28;20359;-84
2021/11/13 04:48:38;;;;;;;24.33;3.70;;;;;;;9.68;100.00;100941.03;5040084;28;20355;-84
2021/11/13 04:51:04;;;;;;;11.05;2.90;;;;;;;9.69;100.00;100945.34;5056689;28;20025;-84
2021/11/13 04:53:29;;;;;;;14.73;2.85;;;;;;;9.69;100.00;100940.09;5056995;28;20040;-84
2021/11/13 04:55:55;;;;;;;32.35;3.38;;;;;;;9.68;100.00;100943.66;5072497;28;20052;-84
2021/11/13 04:58:20;;;;;;;12.02;2.85;;;;;;;9.67;100.00;100936.69;5026379;28;20058;-84
2021/11/13 05:00:46;;;;;;;13.52;2.85;;;;;;;9.69;100.00;100945.34;5043544;28;20040;-84
2021/11/13 05:03:11;;;;;;;13.30;2.80;;;;;;;9.69;100.00;100952.34;5043602;28;20056;-84
2021/11/13 05:05:37;;;;;;;13.52;2.78;;;;;;;9.68;100.00;100937.53;5077265;28;20083;-84
2021/11/13 05:08:02;;;;;;;8.90;2.67;;;;;;;9.69;100.00;100949.72;5026667;28;20032;-84
2021/11/13 05:10:28;;;;;;;6.18;2.40;;;;;;;9.68;100.00;100943.66;5059174;28;20056;-84
2021/11/13 05:12:53;;;;;;;18.05;2.67;;;;;;;9.67;100.00;100952.38;5059771;28;20067;-84
2021/11/13 05:15:19;;;;;;;15.75;2.42;;;;;;;9.66;100.00;100957.66;5042213;28;20040;-84
2021/11/13 05:17:44;;;;;;;16.25;2.67;;;;;;;9.66;100.00;100953.31;5026763;28;20315;-84
2021/11/13 05:20:11;;;;;;;15.93;3.00;;;;;;;9.65;100.00;100956.81;5042974;28;20035;-84
2021/11/13 05:22:37;;;;;;;16.67;3.30;;;;;;;9.65;100.00;100955.97;5026355;28;20052;-84
2021/11/13 05:25:03;;;;;;;10.32;2.90;;;;;;;9.71;100.00;100951.38;5026548;28;20409;-84
2021/11/13 05:27:29;;;;;;;4.15;2.63;;;;;;;9.87;100.00;100956.06;5059586;28;20044;-84
2021/11/13 05:29:54;;;;;;;6.28;2.60;;;;;;;9.97;100.00;100963.53;5059433;28;20335;-83
2021/11/13 05:32:20;;;;;;;17.08;2.63;;;;;;;10.05;100.00;100967.63;5058953;28;20099;-86
2021/11/13 05:34:45;;;;;;;15.73;3.13;;;;;;;10.03;100.00;100972.91;5043059;28;20036;-84
2021/11/13 05:37:11;;;;;;;18.65;3.47;;;;;;;9.96;100.00;100974.88;5059520;28;20069;-84
2021/11/13 05:39:36;;;;;;;19.20;3.05;;;;;;;9.89;100.00;100969.94;5025993;28;20036;-84
2021/11/13 05:42:03;;;;;;;13.98;2.50;;;;;;;9.82;100.00;100979.75;5042435;28;20055;-84
2021/11/13 05:44:29;;;;;;;8.55;2.80;;;;;;;9.78;100.00;100972.94;5059629;28;20212;-84
2021/11/13 05:46:55;;;;;;;11.73;2.58;;;;;;;9.74;100.00;100979.19;5059536;28;20056;-84
2021/11/13 05:49:21;;;;;;;13.70;2.90;;;;;;;9.72;100.00;100978.38;5058908;28;20036;-84
2021/11/13 05:51:46;;;;;;;10.38;3.22;;;;;;;9.69;100.00;100981.94;5042472;28;20032;-84
2021/11/13 05:54:12;;;;;;;25.20;4.40;;;;;;;9.67;100.00;100983.75;5042354;28;20067;-84
2021/11/13 05:56:37;;;;;;;18.13;3.88;;;;;;;9.66;100.00;100976.84;5059113;28;20033;-84
2021/11/13 05:59:03;;;;;;;20.70;3.20;;;;;;;9.67;100.00;100975.91;5026642;28;20036;-84
2021/11/13 06:01:28;;;;;;;16.67;3.28;;;;;;;9.68;100.00;100979.38;5058653;28;20304;-84
2021/11/13 06:03:53;;;;;;;19.88;3.00;;;;;;;9.68;100.00;100985.50;5042658;28;20032;-84
2021/11/13 06:06:19;;;;;;;18.50;3.45;;;;;;;9.68;100.00;100979.38;5058815;28;20035;-85
2021/11/13 06:08:44;;;;;;;14.07;2.83;;;;;;;9.69;100.00;100987.19;5026069;28;20050;-84
2021/11/13 06:11:10;;;;;;;12.45;2.35;;;;;;;9.70;100.00;100990.66;5058873;28;20032;-84
2021/11/13 06:13:36;;;;;;;14.55;2.67;;;;;;;9.69;100.00;100997.63;5059004;28;20304;-84
2021/11/13 06:16:03;;;;;;;15.00;2.60;;;;;;;9.69;100.00;100996.78;5041973;28;20035;-84
2021/11/13 06:18:30;;;;;;;12.80;2.80;;;;;;;9.70;100.00;100998.50;5042258;28;20093;-84
2021/11/13 06:20:55;;;;;;;12.40;2.80;;;;;;;9.69;100.00;100996.78;5059202;28;20044;-84
2021/11/13 06:23:21;;;;;;;14.02;2.80;;;;;;;9.69;100.00;100995.03;5041970;28;20197;-84
2021/11/13 06:25:46;;;;;;;13.10;2.65;;;;;;;9.69;100.00;101002.88;5059204;28;20120;-84
2021/11/13 06:28:12;;;;;;;10.70;2.58;;;;;;;9.69;100.00;101002.88;5043667;28;20030;-84
2021/11/13 06:30:37;;;;;;;15.43;3.00;;;;;;;9.69;100.00;101007.25;5062785;28;20109;-84
2021/11/13 06:33:02;;;;;;;14.40;2.65;;;;;;;9.69;100.00;101005.47;5062641;28;20051;-84
2021/11/13 06:35:28;;;;;;;11.00;2.92;;;;;;;9.69;100.00;101013.31;5045568;28;20085;-84
2021/11/13 06:37:53;;;;;;;23.42;3.03;;;;;;;9.69;100.00;101017.72;5029894;28;20123;-84
2021/11/13 06:40:19;;;;;;;9.02;2.95;;;;;;;9.68;100.00;101018.59;5050961;28;20040;-84
2021/11/13 06:42:44;;;;;;;11.90;2.65;;;;;;;9.71;100.00;101021.13;5066042;28;20019;-84
2021/11/13 06:45:11;;;;;;;11.50;3.30;;;;;;;9.72;100.00;101025.47;5100653;28;20054;-84
2021/11/13 06:47:37;;;;;;;5.88;2.20;;;;;;;9.71;100.00;101035.03;5065234;28;20055;-84
2021/11/13 06:50:04;;;;;;;11.55;2.28;;;;;;;9.72;100.00;101038.53;5065827;28;20031;-84
2021/11/13 06:52:29;;;;;;;12.02;2.10;;;;;;;9.72;100.00;101042.00;5100656;28;20040;-84
2021/11/13 06:54:54;;;;;;;9.13;2.20;;;;;;;9.72;100.00;101043.78;5044627;28;20278;-84
2021/11/13 06:57:20;;;;;;;5.63;2.15;;;;;;;9.72;100.00;101041.16;5034963;28;20073;-84
2021/11/13 06:59:45;;;;;;;8.27;2.80;;;;;;;9.74;100.00;101050.66;5080731;28;20024;-84
2021/11/13 07:02:11;;;;;;;9.32;2.75;;;;;;;9.75;100.00;101048.88;5029365;28;20040;-84
2021/11/13 07:04:36;;;;;;;9.75;2.50;;;;;;;9.75;100.00;101054.97;5053586;28;20044;-84
2021/11/13 07:07:02;;;;;;;16.08;3.00;;;;;;;9.74;100.00;101063.72;5088321;28;20028;-84
2021/11/13 07:09:27;;;;;;;6.30;2.65;;;;;;;9.77;100.00;101075.88;5060350;28;20043;-84
2021/11/13 07:11:53;;;;;;;5.00;2.30;;;;;;;9.76;100.00;101072.38;5078451;28;20046;-84
2021/11/13 07:14:18;;;;;;;8.20;2.88;;;;;;;9.77;100.00;101076.72;5060916;28;20040;-84
2021/11/13 07:16:44;;;;;;;11.63;2.92;;;;;;;9.77;100.00;101083.72;5074302;28;20081;-84
2021/11/13 07:19:09;;;;;;;10.43;3.40;;;;;;;9.77;100.00;101089.78;5062227;28;20047;-84
2021/11/13 07:21:35;;;;;;;7.05;2.92;;;;;;;9.77;100.00;101089.78;5077749;28;20044;-84
2021/11/13 07:24:00;;;;;;;8.32;2.55;;;;;;;9.76;100.00;101095.91;5043216;28;20084;-84
2021/11/13 07:26:26;;;;;;;7.28;3.20;;;;;;;9.77;100.00;101100.25;5052947;28;20036;-84
2021/11/13 07:28:53;;;;;;;7.10;3.03;;;;;;;9.78;100.00;101103.72;5042323;28;20024;-85
2021/11/13 07:31:21;;;;;;;7.40;3.22;;;;;;;9.78;100.00;101108.94;5055341;28;20032;-84
2021/11/13 07:33:49;;;;;;;18.88;3.78;;;;;;;9.79;100.00;101108.91;5069922;28;20036;-84
2021/11/13 07:36:14;;;;;;;9.73;2.97;;;;;;;9.80;100.00;101112.34;5065578;28;20087;-85
2021/11/13 07:38:40;;;;;;;13.05;3.85;;;;;;;9.82;100.00;101113.16;5057556;28;20074;-84
2021/11/13 07:41:07;;;;;;;7.93;2.92;;;;;;;9.84;100.00;101121.84;5080820;28;20036;-84
2021/11/13 07:43:32;;;;;;;11.55;3.85;;;;;;;9.85;100.00;101122.69;5051755;28;20029;-84
2021/11/13 07:45:58;;;;;;;7.35;3.17;;;;;;;9.84;100.00;101119.22;5041195;28;20024;-84
2021/11/13 07:48:23;;;;;;;5.88;2.92;;;;;;;9.83;100.00;101122.72;5039831;28;20033;-84
2021/11/13 07:50:49;;;;;;;12.85;3.47;;;;;;;9.83;100.00;101124.50;5075721;28;20032;-84
2021/11/13 07:53:14;;;;;;;12.00;3.03;;;;;;;9.81;100.00;101132.41;5054955;28;20266;-84
2021/11/13 07:55:40;;;;;;;9.98;3.53;;;;;;;9.80;100.00;101128.94;5048225;28;20603;-84
2021/11/13 07:58:06;;;;;;;12.18;3.80;;;;;;;9.80;100.00;101128.94;5041798;28;20024;-84
2021/11/13 08:00:32;;;;;;;14.15;3.80;;;;;;;9.83;100.00;101132.34;5046217;28;20029;-84
2021/11/13 08:02:57;;;;;;;19.50;5.85;;;;;;;9.83;100.00;101133.19;5062817;28;20332;-84
2021/11/13 08:05:23;;;;;;;24.98;5.20;;;;;;;9.86;100.00;101135.72;5071735;28;20036;-84
2021/11/13 08:07:48;;;;;;;14.82;4.53;;;;;;;9.88;100.00;101139.13;5056552;28;20044;-84
2021/11/13 08:10:14;;;;;;;17.23;4.75;;;;;;;9.92;100.00;101137.28;5063556;28;20044;-84
2021/11/13 08:12:40;;;;;;;11.93;4.40;;;;;;;9.96;100.00;101142.34;5042182;28;20036;-84
2021/11/13 08:15:06;;;;;;;14.85;4.18;;;;;;;9.99;100.00;101141.41;5072682;28;20066;-84
2021/11/13 08:17:31;;;;;;;12.15;4.32;;;;;;;10.00;100.00;101140.47;5041670;28;20036;-84
2021/11/13 08:19:56;;;;;;;12.30;3.65;;;;;;;9.98;100.00;101150.97;5070103;28;20037;-84
2021/11/13 08:22:22;;;;;;;16.98;4.10;;;;;;;9.97;100.00;101157.16;5058550;28;20255;-84
2021/11/13 08:24:47;;;;;;;12.50;3.40;;;;;;;9.97;100.00;101165.00;5078648;28;20294;-84
2021/11/13 08:27:13;;;;;;;9.20;3.42;;;;;;;9.99;100.00;101172.78;5042381;28;20068;-84
2021/11/13 08:29:38;;;;;;;15.88;3.80;;;;;;;10.02;100.00;101177.06;5065888;28;20273;-84
2021/11/13 08:32:06;;;;;;;9.85;3.33;;;;;;;10.02;100.00;101163.97;5066525;28;20048;-85
2021/11/13 08:34:31;;;;;;;16.60;3.30;;;;;;;10.03;100.00;101169.16;5047159;28;20057;-84
2021/11/13 08:36:56;;;;;;;18.67;3.53;;;;;;;10.04;100.00;101164.78;5045840;28;20357;-84
2021/11/13 08:39:23;;;;;;;13.98;3.10;;;;;;;10.05;100.00;101183.03;5083549;28;20348;-84
2021/11/13 08:41:48;;;;;;;6.15;2.80;;;;;;;10.06;100.00;101173.44;5068705;28;20029;-84
2021/11/13 08:44:14;;;;;;;7.80;2.72;;;;;;;10.06;100.00;101176.03;5067390;28;20382;-84
2021/11/13 08:46:39;;;;;;;8.35;2.47;;;;;;;10.06;100.00;101171.69;5068888;28;20357;-84
2021/11/13 08:49:05;;;;;;;17.23;3.50;;;;;;;10.06;100.00;101171.69;5035461;28;20051;-84
2021/11/13 08:51:30;;;;;;;3.88;2.50;;;;;;;10.09;100.00;101181.19;5040915;28;20035;-84
2021/11/13 08:53:56;;;;;;;9.98;2.30;;;;;;;10.10;100.00;101177.69;5058248;28;20045;-84
2021/11/13 08:56:30;;;;;;;10.50;2.42;;;;;;;10.12;100.00;101188.94;5080204;28;20352;-84
2021/11/13 08:58:56;;;;;;;7.90;2.58;;;;;;;10.14;100.00;101192.38;5043033;28;20146;-84
2021/11/13 09:01:23;;;;;;;7.25;1.88;;;;;;;10.13;100.00;101195.88;5072996;28;21182;-84
2021/11/13 09:03:49;;;;;;;7.57;2.50;;;;;;;10.17;100.00;101194.88;5063725;28;20327;-84
2021/11/13 09:06:16;;;;;;;18.25;2.85;;;;;;;10.19;100.00;101191.28;5049900;28;20093;-84
2021/11/13 09:08:42;;;;;;;6.88;2.65;;;;;;;10.20;100.00;101200.00;5056749;28;20036;-84
2021/11/13 09:11:08;;;;;;;11.27;2.58;;;;;;;10.19;100.00;101196.53;5040673;28;20062;-84
2021/11/13 09:13:33;;;;;;;6.30;2.90;;;;;;;10.20;100.00;101202.63;5047570;28;20239;-83
2021/11/13 09:16:00;;;;;;;5.35;2.58;;;;;;;10.21;100.00;101211.34;5059801;28;20615;-84
2021/11/13 09:18:25;;;;;;;8.60;2.70;;;;;;;10.19;100.00;101201.75;5075404;28;20032;-84
2021/11/13 09:20:51;;;;;;;9.38;2.40;;;;;;;10.18;100.00;101209.66;5040277;28;20259;-84
2021/11/13 09:23:16;;;;;;;6.38;2.25;;;;;;;10.19;100.00;101212.25;5081687;28;20089;-84
2021/11/13 09:25:43;;;;;;;9.68;3.25;;;;;;;10.22;100.00;101210.41;5048819;28;20024;-84
2021/11/13 09:28:08;;;;;;;7.97;2.78;;;;;;;10.25;100.00;101215.56;5047855;28;20442;-83
2021/11/13 09:30:35;;;;;;;8.73;2.22;;;;;;;10.29;100.00;101212.78;5039959;28;20036;-83
2021/11/13 09:33:00;;;;;;;6.82;2.20;;;;;;;10.37;100.00;101217.81;5070544;28;20282;-84
2021/11/13 09:35:26;;;;;;;8.25;2.33;;;;;;;10.43;100.00;101227.22;5027671;28;20047;-83
2021/11/13 09:37:52;;;;;;;4.82;1.92;;;;;;;10.45;100.00;101220.16;5061228;28;20032;-83
2021/11/13 09:40:19;;;;;;;6.18;2.30;;;;;;;10.47;100.00;101236.66;5075062;28;20099;-83
2021/11/13 09:42:45;;;;;;;7.70;1.95;;;;;;;10.42;100.00;101234.19;5049959;28;20040;-83
2021/11/13 09:45:11;;;;;;;6.10;1.90;;;;;;;10.42;100.00;101233.34;5051809;28;20039;-83
2021/11/13 09:47:37;;;;;;;5.50;2.30;;;;;;;10.40;100.00;101236.00;5079493;28;20036;-83
2021/11/13 09:50:04;;;;;;;11.00;1.80;;;;;;;10.39;100.00;101236.94;5034887;28;20201;-83
2021/11/13 09:52:29;;;;;;;8.50;2.00;;;;;;;10.39;100.00;101247.41;5057451;28;20024;-83
2021/11/13 09:54:54;;;;;;;12.13;2.35;;;;;;;10.40;100.00;101246.47;5052994;28;20109;-83
2021/11/13 09:57:23;;;;;;;12.73;2.05;;;;;;;10.41;100.00;101245.59;5069642;28;20437;-83
2021/11/13 09:59:48;;;;;;;4.38;1.90;;;;;;;10.42;100.00;101251.69;5044082;28;20039;-83
2021/11/13 10:02:14;;;;;;;4.32;2.10;;;;;;;10.40;100.00;101249.09;5076414;28;20047;-83
2021/11/13 10:04:40;;;;;;;11.55;2.78;;;;;;;10.38;100.00;101251.78;5073073;28;20130;-83
2021/11/13 10:07:05;;;;;;;7.70;1.60;;;;;;;10.40;100.00;101256.97;5057039;28;20372;-83
2021/11/13 10:09:31;;;;;;;10.98;1.90;;;;;;;10.40;100.00;101256.13;5069601;28;20074;-83
2021/11/13 10:11:56;;;;;;;4.95;2.03;;;;;;;10.42;100.00;101256.91;5057349;28;20063;-83
2021/11/13 10:14:36;;;;;;;6.00;2.10;;;;;;;10.43;100.00;101258.63;5097909;28;20051;-83
2021/11/13 10:17:02;;;;;;;2.30;1.90;;;;;;;10.43;100.00;101269.97;5041765;28;20040;-83
2021/11/13 10:19:27;;;;;;;5.45;2.08;;;;;;;10.41;100.00;101257.84;5058807;28;20125;-84
2021/11/13 10:21:54;;;;;;;5.13;2.22;;;;;;;10.44;100.00;101261.22;5061417;28;20217;-84
2021/11/13 10:24:21;;;;;;;8.23;2.38;;;;;;;10.45;100.00;101265.53;5079872;28;20375;-84
2021/11/13 10:26:55;;;;;;;5.38;2.00;;;;;;;10.46;100.00;101262.00;5060417;28;20020;-84
2021/11/13 10:29:35;;;;;;;6.05;1.88;;;;;;;10.49;100.00;101269.75;5079745;28;20032;-84
2021/11/13 10:32:04;;;;;;;7.65;2.30;;;;;;;10.49;100.00;101266.28;5043673;28;20247;-83
2021/11/13 10:34:34;;;;;;;3.10;1.65;;;;;;;10.50;100.00;101260.16;5045208;28;20294;-83
2021/11/13 10:37:01;;;;;;;4.30;1.73;;;;;;;10.50;100.00;101263.59;5064105;28;20040;-84
2021/11/13 10:39:31;;;;;;;7.68;1.65;;;;;;;10.50;100.00;101268.84;5066774;28;20131;-84
2021/11/13 10:41:59;;;;;;;6.28;1.73;;;;;;;10.53;100.00;101263.53;5074771;28;20044;-83
2021/11/13 10:44:37;;;;;;;9.38;1.50;;;;;;;10.59;100.00;101266.81;5096434;28;20039;-83
2021/11/13 10:47:12;;;;;;;7.97;1.97;;;;;;;10.59;100.00;101275.53;5072749;28;20205;-83
2021/11/13 10:49:38;;;;;;;1.92;1.60;;;;;;;10.60;100.00;101264.16;5066750;28;20036;-83
2021/11/13 10:52:04;;;;;;;7.10;1.60;;;;;;;10.60;100.00;101265.91;5054197;28;20366;-83
2021/11/13 10:54:29;;;;;;;8.77;1.90;;;;;;;10.61;100.00;101271.09;5071077;28;20024;-83
2021/11/13 10:57:00;;;;;;;9.05;1.88;;;;;;;10.60;100.00;101269.38;5070266;28;20258;-83
2021/11/13 10:59:39;;;;;;;4.68;1.55;;;;;;;10.63;100.00;101274.53;5052400;28;20354;-83
2021/11/13 11:02:06;;;;;;;6.03;1.50;;;;;;;10.62;100.00;101277.19;5055368;28;20217;-83
2021/11/13 11:04:34;;;;;;;5.97;1.48;;;;;;;10.60;100.00;101277.25;5051122;28;20012;-83
2021/11/13 11:07:12;;;;;;;1.65;1.45;;;;;;;10.59;100.00;101269.44;5056624;28;20039;-83
2021/11/13 11:09:39;;;;;;;4.87;2.60;;;;;;;10.57;100.00;101275.59;5060756;28;20103;-83